createdAt,value
2022-09-15T00:00:34.595Z,9.40
2022-09-15T00:03:04.846Z,6.60
2022-09-15T00:05:35.091Z,8.80
2022-09-15T00:08:06.069Z,10.60
2022-09-15T00:10:37.845Z,7.40
2022-09-15T00:13:08.378Z,9.00
2022-09-15T00:15:38.638Z,9.40
2022-09-15T00:18:08.910Z,9.60
2022-09-15T00:20:43.973Z,8.80
2022-09-15T00:23:16.224Z,8.40
2022-09-15T00:25:49.230Z,9.40
2022-09-15T00:28:23.628Z,8.00
2022-09-15T00:30:56.939Z,10.00
2022-09-15T00:33:27.344Z,8.60
2022-09-15T00:35:59.322Z,12.00
2022-09-15T00:38:29.616Z,7.80
2022-09-15T00:41:01.415Z,7.00
2022-09-15T00:44:02.861Z,8.20
2022-09-15T00:46:39.547Z,9.00
2022-09-15T00:49:28.347Z,10.00
2022-09-15T00:52:04.680Z,8.80
2022-09-15T00:55:11.617Z,9.60
2022-09-15T00:57:51.739Z,8.40
2022-09-15T01:00:24.839Z,11.80
2022-09-15T01:02:58.569Z,10.40
2022-09-15T01:05:49.496Z,11.00
2022-09-15T01:08:35.187Z,7.40
2022-09-15T01:11:05.656Z,10.80
2022-09-15T01:13:38.485Z,9.80
2022-09-15T01:16:22.384Z,10.00
2022-09-15T01:18:58.052Z,10.00
2022-09-15T01:21:36.997Z,10.00
2022-09-15T01:24:25.368Z,10.00
2022-09-15T01:30:14.495Z,12.80
2022-09-15T01:32:53.505Z,11.40
2022-09-15T01:35:32.125Z,11.20
2022-09-15T01:38:07.861Z,14.20
2022-09-15T01:40:43.907Z,13.80
2022-09-15T01:43:16.734Z,10.20
2022-09-15T01:45:50.044Z,10.60
2022-09-15T01:48:23.940Z,9.20
2022-09-15T01:50:59.755Z,11.20
2022-09-15T01:53:30.348Z,11.60
2022-09-15T01:56:13.052Z,9.00
2022-09-15T01:58:44.264Z,11.80
2022-09-15T02:01:25.711Z,10.40
2022-09-15T02:03:59.009Z,10.40
2022-09-15T02:06:47.262Z,10.40
2022-09-15T02:09:26.610Z,3.40
2022-09-15T02:12:16.413Z,10.00
2022-09-15T02:14:59.143Z,12.20
2022-09-15T02:17:31.639Z,10.40
2022-09-15T02:20:10.824Z,8.20
2022-09-15T02:22:44.039Z,10.80
2022-09-15T02:25:17.396Z,9.20
2022-09-15T02:27:50.653Z,12.20
2022-09-15T02:30:22.475Z,8.20
2022-09-15T02:32:58.693Z,9.00
2022-09-15T02:35:32.261Z,19.40
2022-09-15T02:38:04.789Z,10.00
2022-09-15T02:40:36.876Z,10.80
2022-09-15T02:43:10.572Z,12.20
2022-09-15T02:45:41.839Z,10.40
2022-09-15T02:48:12.390Z,10.20
2022-09-15T02:50:42.696Z,8.00
2022-09-15T02:53:13.112Z,9.40
2022-09-15T02:55:43.637Z,11.20
2022-09-15T02:58:13.788Z,11.40
2022-09-15T03:00:44.307Z,9.80
2022-09-15T03:03:14.610Z,11.40
2022-09-15T03:05:45.609Z,12.00
2022-09-15T03:08:16.052Z,9.40
2022-09-15T03:10:46.317Z,12.20
2022-09-15T03:13:16.561Z,12.00
2022-09-15T03:15:47.104Z,10.80
2022-09-15T03:18:17.981Z,12.20
2022-09-15T03:20:48.143Z,9.20
2022-09-15T03:23:18.413Z,11.80
2022-09-15T03:25:48.723Z,12.20
2022-09-15T03:28:18.925Z,10.20
2022-09-15T03:30:49.134Z,15.00
2022-09-15T03:33:19.656Z,13.00
2022-09-15T03:35:51.932Z,12.00
2022-09-15T03:38:22.878Z,11.40
2022-09-15T03:41:09.504Z,11.00
2022-09-15T03:43:45.255Z,11.60
2022-09-15T03:46:15.796Z,13.00
2022-09-15T03:48:46.769Z,11.20
2022-09-15T03:51:17.198Z,13.40
2022-09-15T03:53:47.599Z,10.80
2022-09-15T03:56:29.946Z,14.00
2022-09-15T03:59:02.435Z,11.00
2022-09-15T04:01:33.640Z,13.60
2022-09-15T04:04:04.634Z,15.60
2022-09-15T04:06:35.309Z,15.60
2022-09-15T04:09:09.379Z,15.00
2022-09-15T04:11:40.018Z,13.60
2022-09-15T04:14:10.372Z,16.60
2022-09-15T04:16:41.286Z,16.80
2022-09-15T04:19:11.839Z,16.20
2022-09-15T04:21:42.136Z,16.00
2022-09-15T04:24:12.529Z,15.00
2022-09-15T04:26:43.554Z,16.80
2022-09-15T04:29:16.308Z,17.20
2022-09-15T04:31:46.874Z,14.60
2022-09-15T04:34:23.050Z,14.80
2022-09-15T04:36:53.952Z,15.20
2022-09-15T04:39:24.839Z,12.20
2022-09-15T04:41:55.221Z,17.20
2022-09-15T04:44:25.638Z,13.20
2022-09-15T04:46:56.199Z,17.00
2022-09-15T04:49:29.693Z,14.20
2022-09-15T04:52:00.295Z,17.00
2022-09-15T04:54:34.966Z,18.80
2022-09-15T04:57:07.174Z,14.80
2022-09-15T04:59:40.161Z,16.80
2022-09-15T05:02:10.685Z,12.80
2022-09-15T05:04:43.427Z,17.00
2022-09-15T05:07:14.064Z,17.60
2022-09-15T05:09:45.772Z,15.60
2022-09-15T05:12:19.957Z,16.00
2022-09-15T05:14:53.729Z,18.60
2022-09-15T05:17:28.674Z,17.20
2022-09-15T05:20:00.124Z,18.00
2022-09-15T05:22:31.778Z,11.20
2022-09-15T05:25:08.516Z,11.60
2022-09-15T05:27:38.946Z,12.60
2022-09-15T05:30:36.020Z,19.40
2022-09-15T05:32:42.588Z,13.20
2022-09-15T05:35:14.694Z,14.00
2022-09-15T05:37:45.117Z,15.80
2022-09-15T05:40:15.584Z,16.00
2022-09-15T05:42:46.503Z,16.80
2022-09-15T05:45:17.017Z,16.60
2022-09-15T05:47:47.298Z,17.40
2022-09-15T05:50:17.723Z,18.00
2022-09-15T05:52:55.445Z,14.20
2022-09-15T05:55:28.332Z,16.00
2022-09-15T05:58:04.565Z,10.80
2022-09-15T06:00:35.740Z,18.20
2022-09-15T06:03:06.805Z,24.00
2022-09-15T06:05:40.885Z,22.80
2022-09-15T06:08:11.679Z,21.40
2022-09-15T06:10:44.802Z,28.80
2022-09-15T06:13:18.380Z,31.40
2022-09-15T06:15:48.854Z,32.00
2022-09-15T06:18:21.002Z,39.50
2022-09-15T06:20:52.876Z,53.25
2022-09-15T06:23:25.967Z,55.75
2022-09-15T06:26:07.146Z,57.00
2022-09-15T06:28:38.528Z,49.50
2022-09-15T06:31:16.722Z,62.75
2022-09-15T06:33:50.396Z,62.00
2022-09-15T06:36:22.570Z,50.00
2022-09-15T06:38:55.895Z,43.25
2022-09-15T06:41:47.390Z,44.50
2022-09-15T06:43:59.012Z,55.50
2022-09-15T06:46:29.365Z,47.75
2022-09-15T06:49:00.412Z,50.50
2022-09-15T06:51:31.351Z,40.00
2022-09-15T06:54:03.569Z,40.20
2022-09-15T06:56:37.841Z,40.40
2022-09-15T06:59:06.688Z,45.00
2022-09-15T07:01:37.062Z,51.75
2022-09-15T07:04:08.778Z,53.50
2022-09-15T07:06:42.540Z,49.00
2022-09-15T07:09:12.920Z,61.50
2022-09-15T07:11:43.877Z,48.00
2022-09-15T07:14:14.661Z,53.75
2022-09-15T07:16:46.372Z,48.50
2022-09-15T07:19:16.696Z,58.00
2022-09-15T07:21:49.722Z,55.25
2022-09-15T07:24:20.438Z,58.25
2022-09-15T07:26:53.705Z,62.75
2022-09-15T07:29:26.318Z,64.75
2022-09-15T07:32:00.473Z,60.25
2022-09-15T07:34:30.779Z,63.50
2022-09-15T07:37:01.128Z,63.75
2022-09-15T07:39:31.435Z,62.00
2022-09-15T07:42:01.863Z,59.50
2022-09-15T07:44:32.530Z,59.25
2022-09-15T07:47:03.179Z,54.00
2022-09-15T07:49:33.593Z,60.50
2022-09-15T07:52:07.506Z,54.00
2022-09-15T07:55:05.905Z,57.75
2022-09-15T07:57:43.703Z,54.75
2022-09-15T08:00:14.357Z,53.75
2022-09-15T08:02:44.886Z,53.00
2022-09-15T08:05:15.423Z,51.20
2022-09-15T08:07:46.205Z,36.60
2022-09-15T08:10:17.336Z,34.60
2022-09-15T08:12:49.343Z,32.00
2022-09-15T08:15:19.895Z,27.20
2022-09-15T08:17:52.071Z,34.20
2022-09-15T08:20:22.383Z,28.00
2022-09-15T08:22:53.885Z,24.20
2022-09-15T08:25:24.532Z,24.20
2022-09-15T08:27:56.570Z,23.00
2022-09-15T08:30:28.294Z,19.60
2022-09-15T08:32:58.851Z,27.40
2022-09-15T08:35:30.580Z,33.80
2022-09-15T08:38:00.811Z,30.60
2022-09-15T08:40:34.543Z,23.80
2022-09-15T08:43:07.915Z,27.20
2022-09-15T08:45:41.792Z,26.20
2022-09-15T08:48:16.801Z,32.00
2022-09-15T08:50:50.408Z,18.20
2022-09-15T08:53:29.605Z,24.00
2022-09-15T08:56:07.081Z,26.80
2022-09-15T08:58:37.766Z,22.60
2022-09-15T09:01:30.711Z,35.40
2022-09-15T09:04:04.207Z,33.80
2022-09-15T09:07:03.300Z,31.60
2022-09-15T09:10:12.741Z,21.60
2022-09-15T09:12:51.516Z,16.20
2022-09-15T09:15:33.964Z,15.20
2022-09-15T09:18:33.020Z,14.00
2022-09-15T09:21:16.536Z,12.60
2022-09-15T09:24:05.689Z,13.80
2022-09-15T09:26:37.576Z,12.20
2022-09-15T09:29:27.152Z,13.80
2022-09-15T09:31:58.658Z,7.20
2022-09-15T09:34:39.023Z,12.20
2022-09-15T09:37:13.150Z,11.20
2022-09-15T09:39:43.656Z,12.40
2022-09-15T09:42:18.923Z,9.80
2022-09-15T09:44:49.425Z,12.60
2022-09-15T09:47:20.363Z,11.40
2022-09-15T09:49:50.740Z,11.00
2022-09-15T09:52:38.959Z,11.60
2022-09-15T09:55:20.806Z,11.60
2022-09-15T09:57:52.754Z,10.00
2022-09-15T10:00:35.064Z,10.80
2022-09-15T10:03:23.226Z,10.20
2022-09-15T10:06:17.534Z,15.40
2022-09-15T10:11:57.969Z,9.60
2022-09-15T10:14:40.484Z,11.80
2022-09-15T10:17:16.721Z,10.80
2022-09-15T10:20:14.830Z,10.40
2022-09-15T10:22:46.818Z,11.20
2022-09-15T10:25:35.668Z,10.40
2022-09-15T10:28:15.844Z,8.60
2022-09-15T10:31:07.113Z,10.40
2022-09-15T10:33:40.253Z,8.80
2022-09-15T10:36:21.988Z,8.00
2022-09-15T10:39:16.382Z,10.00
2022-09-15T10:41:50.397Z,8.80
2022-09-15T10:44:28.087Z,9.20
2022-09-15T10:47:16.980Z,9.00
2022-09-15T10:50:06.276Z,8.80
2022-09-15T10:53:03.229Z,7.00
2022-09-15T10:55:53.658Z,8.80
2022-09-15T10:58:29.679Z,10.00
2022-09-15T11:01:15.445Z,9.20
2022-09-15T11:04:14.120Z,10.20
2022-09-15T11:06:55.279Z,10.80
2022-09-15T11:09:31.109Z,11.00
2022-09-15T11:12:29.574Z,10.00
2022-09-15T11:15:09.056Z,11.20
2022-09-15T11:17:57.832Z,8.20
2022-09-15T11:20:50.567Z,9.80
2022-09-15T11:23:32.510Z,9.00
2022-09-15T11:26:14.114Z,11.80
2022-09-15T11:28:53.062Z,10.60
2022-09-15T11:31:32.121Z,10.00
2022-09-15T11:34:06.748Z,8.80
2022-09-15T11:36:51.326Z,10.00
2022-09-15T11:39:33.180Z,7.80
2022-09-15T11:45:31.454Z,9.60
2022-09-15T11:48:14.447Z,8.20
2022-09-15T11:50:51.751Z,9.00
2022-09-15T11:54:15.304Z,4.00
2022-09-15T11:56:47.503Z,9.80
2022-09-15T11:59:35.496Z,8.40
2022-09-15T12:02:35.172Z,10.20
2022-09-15T12:05:20.099Z,11.00
2022-09-15T12:08:08.562Z,10.00
2022-09-15T12:10:42.086Z,10.40
2022-09-15T12:13:22.034Z,10.00
2022-09-15T12:15:53.875Z,10.80
2022-09-15T12:18:41.776Z,9.80
2022-09-15T12:21:32.486Z,12.00
2022-09-15T12:24:23.135Z,8.00
2022-09-15T12:26:53.559Z,9.80
2022-09-15T12:29:29.952Z,13.00
2022-09-15T12:32:21.846Z,8.20
2022-09-15T12:35:03.903Z,11.00
2022-09-15T12:37:49.353Z,10.00
2022-09-15T12:40:28.772Z,10.60
2022-09-15T12:43:01.915Z,9.60
2022-09-15T12:45:35.293Z,10.00
2022-09-15T12:48:14.316Z,8.60
2022-09-15T12:50:53.502Z,10.00
2022-09-15T12:53:29.723Z,13.00
2022-09-15T12:56:02.819Z,10.40
2022-09-15T12:58:39.697Z,10.00
2022-09-15T13:01:25.168Z,9.80
2022-09-15T13:04:03.388Z,12.60
2022-09-15T13:06:34.591Z,10.40
2022-09-15T13:09:08.483Z,11.00
2022-09-15T13:11:42.373Z,11.00
2022-09-15T13:14:15.623Z,15.60
2022-09-15T13:17:05.085Z,15.40
2022-09-15T13:19:38.409Z,12.60
2022-09-15T13:22:32.784Z,13.20
2022-09-15T13:25:15.769Z,12.80
2022-09-15T13:27:57.805Z,15.00
2022-09-15T13:30:56.655Z,13.80
2022-09-15T13:40:21.616Z,13.00
2022-09-15T13:43:12.994Z,16.00
2022-09-15T13:46:16.746Z,15.40
2022-09-15T13:49:18.915Z,18.00
2022-09-15T13:52:04.895Z,14.60
2022-09-15T13:54:36.184Z,14.20
2022-09-15T13:57:08.330Z,13.20
2022-09-15T13:59:46.052Z,10.80
2022-09-15T14:02:16.726Z,13.20
2022-09-15T14:04:51.057Z,13.00
2022-09-15T14:07:26.958Z,15.00
2022-09-15T14:10:00.040Z,14.80
2022-09-15T14:12:30.681Z,16.20
2022-09-15T14:15:03.163Z,18.60
2022-09-15T14:17:33.672Z,17.80
2022-09-15T14:20:04.131Z,20.60
2022-09-15T14:22:35.929Z,19.20
2022-09-15T14:25:09.003Z,18.40
2022-09-15T14:27:42.174Z,19.40
2022-09-15T14:30:18.784Z,19.80
2022-09-15T14:32:54.894Z,19.40
2022-09-15T14:35:30.956Z,23.60
2022-09-15T14:38:05.798Z,32.20
2022-09-15T14:40:39.547Z,21.40
2022-09-15T14:43:39.994Z,22.60
2022-09-15T14:46:13.098Z,20.60
2022-09-15T14:48:43.955Z,26.20
2022-09-15T14:51:26.679Z,21.80
2022-09-15T14:53:59.887Z,23.00
2022-09-15T14:56:33.213Z,21.60
2022-09-15T14:59:06.574Z,24.40
2022-09-15T15:01:39.909Z,27.60
2022-09-15T15:04:33.958Z,31.60
2022-09-15T15:10:52.175Z,23.60
2022-09-15T15:13:22.981Z,18.20
2022-09-15T15:30:11.959Z,28.40
2022-09-15T15:32:40.416Z,20.60
2022-09-15T15:38:11.631Z,27.40
2022-09-15T15:40:47.982Z,28.80
2022-09-15T15:43:24.062Z,26.60
2022-09-15T15:46:00.521Z,30.40
2022-09-15T15:48:37.867Z,26.00
2022-09-15T15:51:09.454Z,24.60
2022-09-15T15:53:41.871Z,22.60
2022-09-15T15:56:13.942Z,25.40
2022-09-15T15:58:44.782Z,34.20
2022-09-15T16:01:22.062Z,38.50
2022-09-15T16:03:54.042Z,48.00
2022-09-15T16:06:33.320Z,44.00
2022-09-15T16:09:10.877Z,33.80
2022-09-15T16:11:48.937Z,37.75
2022-09-15T16:14:20.055Z,33.60
2022-09-15T16:16:54.784Z,31.00
2022-09-15T16:19:26.622Z,29.60
2022-09-15T16:22:00.813Z,30.00
2022-09-15T16:24:37.170Z,26.60
2022-09-15T16:27:13.439Z,28.80
2022-09-15T16:29:46.829Z,39.75
2022-09-15T16:32:23.911Z,33.50
2022-09-15T16:34:55.590Z,29.00
2022-09-15T16:37:28.680Z,30.80
2022-09-15T16:40:23.859Z,24.40
2022-09-15T16:42:58.034Z,22.40
2022-09-15T16:45:41.546Z,23.80
2022-09-15T16:48:15.561Z,27.00
2022-09-15T16:51:09.077Z,30.00
2022-09-15T16:53:22.992Z,32.80
2022-09-15T16:55:54.632Z,31.60
2022-09-15T16:58:25.131Z,38.25
2022-09-15T17:00:55.878Z,34.40
2022-09-15T17:03:27.042Z,31.20
2022-09-15T17:06:00.049Z,26.80
2022-09-15T17:08:33.452Z,31.00
2022-09-15T17:11:05.292Z,32.20
2022-09-15T17:13:35.663Z,33.50
2022-09-15T17:16:06.621Z,31.60
2022-09-15T17:18:38.015Z,27.40
2022-09-15T17:21:10.652Z,35.80
2022-09-15T17:23:46.427Z,32.20
2022-09-15T17:26:20.297Z,31.40
2022-09-15T17:29:00.728Z,29.80
2022-09-15T17:31:33.280Z,31.80
2022-09-15T17:34:03.968Z,30.00
2022-09-15T17:36:37.715Z,32.25
2022-09-15T17:39:08.353Z,28.00
2022-09-15T17:41:44.496Z,31.20
2022-09-15T17:44:21.593Z,37.20
2022-09-15T17:46:59.290Z,32.20
2022-09-15T17:49:35.417Z,41.00
2022-09-15T17:52:07.420Z,32.25
2022-09-15T17:54:49.660Z,31.40
2022-09-15T17:57:23.195Z,29.20
2022-09-15T17:59:53.828Z,33.40
2022-09-15T18:02:26.815Z,34.40
2022-09-15T18:05:11.593Z,30.20
2022-09-15T18:07:44.969Z,32.20
2022-09-15T18:16:08.742Z,32.80
2022-09-15T18:21:39.669Z,27.40
2022-09-15T18:24:24.009Z,28.40
2022-09-15T18:27:08.661Z,29.40
2022-09-15T18:29:47.315Z,29.50
2022-09-15T18:32:28.292Z,31.20
2022-09-15T18:35:08.188Z,31.20
2022-09-15T18:37:44.667Z,32.60
2022-09-15T18:40:20.051Z,30.60
2022-09-15T18:42:52.213Z,39.20
2022-09-15T18:45:23.916Z,32.40
2022-09-15T18:47:56.338Z,34.80
2022-09-15T18:50:28.341Z,34.00
2022-09-15T18:52:58.756Z,35.00
2022-09-15T18:55:29.303Z,36.20
2022-09-15T18:58:01.117Z,35.60
2022-09-15T19:00:32.080Z,32.60
2022-09-15T19:03:07.600Z,29.40
2022-09-15T19:05:38.543Z,35.50
2022-09-15T19:08:09.486Z,37.00
2022-09-15T19:10:41.074Z,32.40
2022-09-15T19:13:22.061Z,37.60
2022-09-15T19:15:58.978Z,32.60
2022-09-15T19:18:33.834Z,36.00
2022-09-15T19:21:12.259Z,37.75
2022-09-15T19:23:44.634Z,36.00
2022-09-15T19:26:21.910Z,35.40
2022-09-15T19:29:11.178Z,35.25
2022-09-15T19:31:41.130Z,39.25
2022-09-15T19:34:16.340Z,41.00
2022-09-15T19:36:50.567Z,42.75
2022-09-15T19:39:28.728Z,44.00
2022-09-15T19:42:09.763Z,44.00
2022-09-15T19:44:43.772Z,45.50
2022-09-15T19:47:40.871Z,40.75
2022-09-15T19:50:22.279Z,39.25
2022-09-15T19:52:59.632Z,37.50
2022-09-15T19:55:39.600Z,42.50
2022-09-15T19:58:10.033Z,43.00
2022-09-15T20:00:40.318Z,39.50
2022-09-15T20:03:10.692Z,42.00
2022-09-15T20:05:44.213Z,44.00
2022-09-15T20:08:22.925Z,44.00
2022-09-15T20:10:53.612Z,44.50
2022-09-15T20:13:32.524Z,51.75
2022-09-15T20:16:06.764Z,42.50
2022-09-15T20:18:39.503Z,43.00
2022-09-15T20:21:21.737Z,47.00
2022-09-15T20:23:47.689Z,47.50
2022-09-15T20:26:33.546Z,45.25
2022-09-15T20:29:07.606Z,51.25
2022-09-15T20:31:48.047Z,49.75
2022-09-15T20:34:33.349Z,44.50
2022-09-15T20:37:03.284Z,45.00
2022-09-15T20:39:34.397Z,47.75
2022-09-15T20:42:04.908Z,49.50
2022-09-15T20:44:35.683Z,52.50
2022-09-15T20:47:07.719Z,48.75
2022-09-15T20:49:55.486Z,49.75
2022-09-15T20:52:34.646Z,53.25
2022-09-15T20:54:51.823Z,49.25
2022-09-15T20:57:23.597Z,48.50
2022-09-15T20:59:53.915Z,52.00
2022-09-15T21:02:27.335Z,51.75
2022-09-15T21:04:57.964Z,53.25
2022-09-15T21:07:30.941Z,52.75
2022-09-15T21:10:01.223Z,44.50
2022-09-15T21:12:36.050Z,49.00
2022-09-15T21:15:12.959Z,47.00
2022-09-15T21:17:45.628Z,45.75
2022-09-15T21:20:17.473Z,48.75
2022-09-15T21:23:00.541Z,49.25
2022-09-15T21:25:38.947Z,45.00
2022-09-15T21:28:10.374Z,42.00
2022-09-15T21:30:41.407Z,43.00
2022-09-15T21:33:14.833Z,39.25
2022-09-15T21:35:46.650Z,41.25
2022-09-15T21:38:23.551Z,41.75
2022-09-15T21:40:53.774Z,43.00
2022-09-15T21:43:35.525Z,40.50
2022-09-15T21:46:08.612Z,39.50
2022-09-15T21:48:40.126Z,47.25
2022-09-15T21:51:11.885Z,38.75
2022-09-15T21:53:43.186Z,35.75
2022-09-15T21:56:14.150Z,34.75
2022-09-15T21:58:45.764Z,38.50
2022-09-15T22:01:27.941Z,35.00
2022-09-15T22:04:00.867Z,42.50
2022-09-15T22:06:33.620Z,33.75
2022-09-15T22:09:06.816Z,36.75
2022-09-15T22:11:37.836Z,37.50
2022-09-15T22:14:08.576Z,33.25
2022-09-15T22:16:40.239Z,37.25
2022-09-15T22:19:12.431Z,33.25
2022-09-15T22:21:43.031Z,35.25
2022-09-15T22:24:13.859Z,32.75
2022-09-15T22:26:48.511Z,39.75
2022-09-15T22:29:18.818Z,38.25
2022-09-15T22:31:49.323Z,40.50
2022-09-15T22:34:19.813Z,33.50
2022-09-15T22:36:50.058Z,39.25
2022-09-15T22:39:20.366Z,35.50
2022-09-15T22:41:50.898Z,34.50
2022-09-15T22:44:21.343Z,38.50
2022-09-15T22:46:51.943Z,33.00
2022-09-15T22:49:22.394Z,35.25
2022-09-15T22:51:52.595Z,36.25
2022-09-15T22:54:23.279Z,33.75
2022-09-15T22:56:53.564Z,37.50
2022-09-15T22:59:24.024Z,35.25
2022-09-15T23:01:54.942Z,29.25
2022-09-15T23:04:25.194Z,33.00
2022-09-15T23:06:55.521Z,33.50
2022-09-15T23:09:26.338Z,30.75
2022-09-15T23:11:56.645Z,30.00
2022-09-15T23:14:27.404Z,34.25
2022-09-15T23:16:57.618Z,34.50
2022-09-15T23:19:28.121Z,36.00
2022-09-15T23:21:58.367Z,34.75
2022-09-15T23:24:29.335Z,33.75
2022-09-15T23:26:59.564Z,34.00
2022-09-15T23:29:29.978Z,33.25
2022-09-15T23:32:00.320Z,26.75
2022-09-15T23:34:30.682Z,36.75
2022-09-15T23:37:01.262Z,36.50
2022-09-15T23:39:31.566Z,28.50
2022-09-15T23:42:03.366Z,33.50
2022-09-15T23:44:33.752Z,38.25
2022-09-15T23:47:04.271Z,30.50
2022-09-15T23:49:36.051Z,28.50
2022-09-15T23:52:07.091Z,34.00
2022-09-15T23:54:37.639Z,36.75
2022-09-15T23:57:08.288Z,47.75
2022-09-15T23:59:38.805Z,34.50
